createdAt,value
2019-05-14T00:05:53.288Z,10.15
2019-05-14T00:11:59.160Z,10.06
2019-05-14T00:18:04.965Z,9.95
2019-05-14T00:24:11.504Z,9.86
2019-05-14T00:30:17.909Z,9.78
2019-05-14T00:36:24.616Z,9.74
2019-05-14T00:42:31.864Z,9.70
2019-05-14T00:48:39.263Z,9.67
2019-05-14T00:54:45.055Z,9.60
2019-05-14T01:00:52.551Z,9.44
2019-05-14T01:06:58.890Z,9.32
2019-05-14T01:13:04.999Z,9.16
2019-05-14T01:19:12.409Z,9.03
2019-05-14T01:25:18.429Z,8.98
2019-05-14T01:31:24.233Z,8.92
2019-05-14T01:37:31.143Z,8.82
2019-05-14T01:43:37.634Z,8.73
2019-05-14T01:49:43.430Z,8.65
2019-05-14T01:55:49.161Z,8.65
2019-05-14T02:01:54.910Z,8.53
2019-05-14T02:08:01.882Z,8.41
2019-05-14T02:14:07.918Z,8.39
2019-05-14T02:20:13.651Z,8.35
2019-05-14T02:26:21.909Z,8.32
2019-05-14T02:32:29.738Z,8.23
2019-05-14T02:38:34.789Z,8.14
2019-05-14T02:44:41.151Z,8.04
2019-05-14T02:50:49.381Z,7.99
2019-05-14T02:56:54.803Z,7.92
2019-05-14T03:03:00.817Z,7.81
2019-05-14T03:09:09.607Z,7.78
2019-05-14T03:15:16.088Z,7.73
2019-05-14T03:21:22.022Z,7.67
2019-05-14T03:27:30.443Z,7.58
2019-05-14T03:33:35.311Z,7.67
2019-05-14T03:39:41.154Z,7.61
2019-05-14T03:45:49.552Z,7.62
2019-05-14T03:51:54.663Z,7.58
2019-05-14T03:58:00.963Z,7.55
2019-05-14T04:04:09.967Z,7.52
2019-05-14T04:10:14.510Z,7.50
2019-05-14T04:16:24.237Z,7.42
2019-05-14T04:22:33.829Z,7.40
2019-05-14T04:28:41.871Z,7.38
2019-05-14T04:34:49.861Z,7.41
2019-05-14T04:40:55.453Z,7.44
2019-05-14T04:47:21.620Z,7.54
2019-05-14T04:53:10.331Z,7.58
2019-05-14T04:59:19.099Z,7.64
2019-05-14T05:05:23.668Z,7.68
2019-05-14T05:11:29.676Z,7.71
2019-05-14T05:17:44.249Z,7.70
2019-05-14T05:23:43.186Z,7.75
2019-05-14T05:29:49.160Z,7.88
2019-05-14T05:35:55.121Z,7.99
2019-05-14T05:42:01.422Z,8.14
2019-05-14T05:48:08.409Z,8.33
2019-05-14T05:54:14.591Z,8.49
2019-05-14T06:00:39.832Z,8.57
2019-05-14T06:06:44.992Z,8.76
2019-05-14T06:12:52.685Z,8.93
2019-05-14T06:18:58.961Z,9.07
2019-05-14T06:25:10.533Z,9.24
2019-05-14T06:31:13.259Z,9.48
2019-05-14T06:37:19.374Z,9.59
2019-05-14T06:43:28.852Z,9.77
2019-05-14T06:49:38.339Z,9.97
2019-05-14T06:55:43.551Z,10.15
2019-05-14T07:01:49.487Z,10.40
2019-05-14T07:07:55.903Z,10.60
2019-05-14T07:14:02.688Z,10.80
2019-05-14T07:20:11.315Z,10.96
2019-05-14T07:26:19.330Z,10.93
2019-05-14T07:32:24.622Z,11.12
2019-05-14T07:38:30.716Z,11.36
2019-05-14T07:44:39.087Z,11.55
2019-05-14T07:50:51.235Z,11.53
2019-05-14T07:56:53.504Z,11.78
2019-05-14T08:02:59.290Z,11.87
2019-05-14T08:09:08.632Z,12.13
2019-05-14T08:15:19.994Z,12.09
2019-05-14T08:21:23.320Z,12.23
2019-05-14T08:27:31.035Z,12.47
2019-05-14T08:33:39.445Z,12.51
2019-05-14T08:39:44.900Z,12.50
2019-05-14T08:45:50.693Z,12.61
2019-05-14T08:51:59.363Z,12.64
2019-05-14T08:58:04.501Z,12.99
2019-05-14T09:04:10.351Z,12.99
2019-05-14T09:10:19.067Z,13.06
2019-05-14T09:16:38.477Z,13.12
2019-05-14T09:22:31.271Z,13.33
2019-05-14T09:28:39.229Z,13.64
2019-05-14T09:34:48.437Z,13.74
2019-05-14T09:41:06.910Z,13.92
2019-05-14T09:47:00.782Z,14.09
2019-05-14T09:53:09.765Z,14.26
2019-05-14T09:59:14.500Z,14.42
2019-05-14T10:05:20.283Z,14.76
2019-05-14T10:11:28.631Z,14.96
2019-05-14T10:17:33.724Z,14.84
2019-05-14T10:23:39.449Z,14.95
2019-05-14T10:29:45.389Z,14.51
2019-05-14T10:35:51.304Z,14.65
2019-05-14T10:41:57.354Z,14.67
2019-05-14T10:48:03.327Z,15.00
2019-05-14T10:54:20.958Z,15.41
2019-05-14T11:00:18.636Z,15.51
2019-05-14T11:06:24.654Z,15.46
2019-05-14T11:12:30.771Z,15.54
2019-05-14T11:18:39.592Z,15.55
2019-05-14T11:24:44.238Z,15.42
2019-05-14T11:30:50.051Z,15.38
2019-05-14T11:36:55.797Z,15.65
2019-05-14T11:43:01.545Z,16.07
2019-05-14T11:49:08.852Z,16.23
2019-05-14T11:55:15.449Z,16.40
2019-05-14T12:01:21.234Z,16.68
2019-05-14T12:07:28.096Z,16.68
2019-05-14T12:13:34.407Z,16.75
2019-05-14T12:19:43.516Z,17.06
2019-05-14T12:25:49.568Z,17.43
2019-05-14T12:31:55.313Z,17.13
2019-05-14T12:38:01.143Z,17.31
2019-05-14T12:44:09.379Z,16.99
2019-05-14T12:50:14.435Z,16.65
2019-05-14T12:56:20.217Z,17.35
2019-05-14T13:02:25.948Z,17.89
2019-05-14T13:08:31.751Z,18.08
2019-05-14T13:14:39.410Z,18.12
2019-05-14T13:20:45.113Z,17.91
2019-05-14T13:26:50.937Z,17.71
2019-05-14T13:32:59.076Z,18.20
2019-05-14T13:39:08.977Z,18.61
2019-05-14T13:45:14.211Z,18.28
2019-05-14T13:51:20.113Z,18.05
2019-05-14T13:57:28.544Z,18.26
2019-05-14T14:03:33.709Z,18.49
2019-05-14T14:09:39.794Z,18.28
2019-05-14T14:15:45.584Z,18.58
2019-05-14T14:21:51.458Z,18.83
2019-05-14T14:28:00.383Z,19.24
2019-05-14T14:34:04.983Z,18.90
2019-05-14T14:40:11.476Z,18.49
2019-05-14T14:46:19.624Z,19.18
2019-05-14T14:52:25.025Z,19.37
2019-05-14T14:58:30.851Z,20.08
2019-05-14T15:04:39.541Z,20.17
2019-05-14T15:10:44.798Z,20.25
2019-05-14T15:16:51.551Z,20.76
2019-05-14T15:22:59.977Z,20.73
2019-05-14T15:29:05.172Z,20.84
2019-05-14T15:35:11.535Z,20.45
2019-05-14T15:41:20.162Z,20.04
2019-05-14T15:47:25.128Z,20.11
2019-05-14T15:53:31.263Z,20.45
2019-05-14T15:59:39.200Z,20.92
2019-05-14T16:05:44.560Z,20.91
2019-05-14T16:11:50.337Z,20.74
2019-05-14T16:18:08.215Z,20.83
2019-05-14T16:24:03.783Z,20.77
2019-05-14T16:30:10.440Z,20.86
2019-05-14T16:36:18.448Z,20.86
2019-05-14T16:42:25.242Z,20.67
2019-05-14T16:48:31.510Z,20.74
2019-05-14T16:54:39.474Z,20.73
2019-05-14T17:00:45.055Z,20.39
2019-05-14T17:06:50.882Z,20.12
2019-05-14T17:13:00.528Z,19.61
2019-05-14T17:19:04.251Z,18.94
2019-05-14T17:25:10.608Z,18.99
2019-05-14T17:31:18.787Z,18.93
2019-05-14T17:37:24.186Z,18.60
2019-05-14T17:43:30.054Z,18.42
2019-05-14T17:49:35.803Z,18.15
2019-05-14T17:55:47.093Z,18.10
2019-05-14T18:01:49.134Z,17.87
2019-05-14T18:07:54.920Z,17.75
2019-05-14T18:14:00.943Z,17.57
2019-05-14T18:20:08.372Z,17.37
2019-05-14T18:26:14.604Z,17.18
2019-05-14T18:32:20.564Z,16.85
2019-05-14T18:38:28.898Z,16.84
2019-05-14T18:44:33.939Z,16.65
2019-05-14T18:50:40.011Z,16.46
2019-05-14T18:56:48.925Z,16.46
2019-05-14T19:02:54.893Z,16.36
2019-05-14T19:09:00.817Z,16.21
2019-05-14T19:15:08.774Z,15.97
2019-05-14T19:21:14.936Z,15.80
2019-05-14T19:27:20.944Z,15.71
2019-05-14T19:33:28.803Z,15.57
2019-05-14T19:39:34.731Z,15.39
2019-05-14T19:45:40.598Z,15.19
2019-05-14T19:51:48.312Z,15.03
2019-05-14T19:57:53.916Z,14.84
2019-05-14T20:04:00.538Z,14.69
2019-05-14T20:10:08.911Z,14.55
2019-05-14T20:16:14.861Z,14.47
2019-05-14T20:22:21.230Z,14.25
2019-05-14T20:28:27.056Z,13.88
2019-05-14T20:34:32.872Z,13.57
2019-05-14T20:40:38.609Z,13.40
2019-05-14T20:46:44.622Z,13.27
2019-05-14T20:52:50.401Z,13.10
2019-05-14T20:58:56.270Z,12.99
2019-05-14T21:05:04.692Z,12.72
2019-05-14T21:11:09.652Z,12.51
2019-05-14T21:17:15.593Z,12.38
2019-05-14T21:23:21.523Z,12.24
2019-05-14T21:29:30.394Z,12.04
2019-05-14T21:35:38.736Z,11.72
2019-05-14T21:41:44.201Z,11.59
2019-05-14T21:47:49.967Z,11.39
2019-05-14T21:53:55.753Z,11.15
2019-05-14T22:00:01.931Z,10.91
2019-05-14T22:06:08.853Z,10.79
2019-05-14T22:12:14.937Z,10.63
2019-05-14T22:18:21.044Z,10.39
2019-05-14T22:24:28.719Z,10.36
2019-05-14T22:30:34.599Z,10.24
2019-05-14T22:36:40.528Z,10.11
2019-05-14T22:42:46.511Z,10.02
2019-05-14T22:48:52.318Z,9.90
2019-05-14T22:54:58.688Z,9.75
2019-05-14T23:01:14.350Z,9.59
2019-05-14T23:07:12.442Z,9.46
2019-05-14T23:13:18.686Z,9.47
2019-05-14T23:19:25.253Z,9.29
2019-05-14T23:25:31.225Z,9.12
2019-05-14T23:31:38.436Z,8.98
2019-05-14T23:37:44.501Z,8.83
2019-05-14T23:43:50.542Z,8.83
2019-05-14T23:49:58.426Z,8.69
2019-05-14T23:56:04.194Z,8.48
